PWSweather.com
Personal Weather Stations
Station Observations
ANTHEMNP
Anthem North Parkside, Anthem, AZ 85086

Anthem North ParksideAnthem, AZ 85086

Lat: 33.876464, Lon: -112.13861199999997

Elevation: 1930

Station Type: Davis Vantage Vue with Pro 2 console

http://www.azjerry.com/ANPW/wxindex.php

High Low Average
Temperature 94.4°F34.7°C 73.2°F22.9°C 82.4°F28.0°C
Dew Point 70.0°F21.1°C 65.0°F18.3°C 67.0°F19.4°C
Winds 12.5 mph 20.1 kmh Calm Calm 3.0 mph SE4.8 kmh SE
Wind Gusts 23.0 mph37.0 kmh 1.0 mph1.6 kmh 7.0 mph11.3 kmh
Humidity 86% 39% 62%
Pressure 30.01 in1016.3 mb 29.89 in1012.2 mb -
Precipitation 0.07 in1.8 mm - -
Hour Temp Dew Point Humidity Winds Wind Gusts Pressure Precip Precip Rate Daily Precip Total
12:00 AM 75.0°F23.9°C 69.0°F20.6°C 82% 2.9 mph N4.7 kmh N 9.0 mph14.5 kmh 29.95 in1014.2 mb 0.08 in2.0 mm 0.00 in0.0 mm 0.08 in2.0 mm
12:10 AM 75.0°F23.9°C 70.0°F21.1°C 83% 1.5 mph N2.4 kmh N 5.0 mph8.0 kmh 29.95 in1014.2 mb 0.04 in1.0 mm 0.00 in0.0 mm 0.08 in2.0 mm
12:20 AM 75.3°F24.1°C 69.0°F20.6°C 80% 1.6 mph NE2.6 kmh NE 4.0 mph6.4 kmh 29.94 in1013.9 mb 0.04 in1.0 mm 0.00 in0.0 mm 0.01 in0.3 mm
12:30 AM 74.8°F23.8°C 70.0°F21.1°C 85% Calm Calm 1.0 mph1.6 kmh 29.94 in1013.9 mb 0.00 in0.0 mm 0.00 in0.0 mm 0.01 in0.3 mm
12:40 AM 74.7°F23.7°C 70.0°F21.1°C 85% 0.8 mph NNE1.3 kmh NNE 2.0 mph3.2 kmh 29.95 in1014.2 mb 0.00 in0.0 mm 0.00 in0.0 mm 0.02 in0.5 mm
12:50 AM 74.2°F23.4°C 70.0°F21.1°C 85% 4.0 mph N6.4 kmh N 7.0 mph11.3 kmh 29.95 in1014.2 mb 0.06 in1.5 mm 0.36 in9.1 mm 0.03 in0.8 mm
01:00 AM 73.7°F23.2°C 69.0°F20.6°C 85% 2.3 mph NNE3.7 kmh NNE 6.0 mph9.7 kmh 29.94 in1013.9 mb 0.04 in1.0 mm 0.00 in0.0 mm 0.03 in0.8 mm
01:10 AM 73.4°F23.0°C 69.0°F20.6°C 85% 3.3 mph NNW5.3 kmh NNW 7.0 mph11.3 kmh 29.93 in1013.5 mb 0.04 in1.0 mm 0.00 in0.0 mm 0.04 in1.0 mm
01:20 AM 73.2°F22.9°C 69.0°F20.6°C 86% 4.6 mph ENE7.4 kmh ENE 8.0 mph12.9 kmh 29.92 in1013.2 mb 0.08 in2.0 mm 0.24 in6.1 mm 0.06 in1.5 mm
01:30 AM 73.4°F23.0°C 68.0°F20.0°C 82% 6.7 mph N10.8 kmh N 14.0 mph22.5 kmh 29.91 in1012.9 mb 0.05 in1.3 mm 0.00 in0.0 mm 0.06 in1.5 mm
01:40 AM 73.7°F23.2°C 67.0°F19.4°C 80% 9.6 mph NNE15.4 kmh NNE 18.0 mph29.0 kmh 29.90 in1012.5 mb 0.04 in1.0 mm 0.00 in0.0 mm 0.07 in1.8 mm
01:50 AM 73.4°F23.0°C 67.0°F19.4°C 81% 9.9 mph NE15.9 kmh NE 20.0 mph32.2 kmh 29.90 in1012.5 mb 0.04 in1.0 mm 0.00 in0.0 mm 0.07 in1.8 mm
02:00 AM 73.7°F23.2°C 67.0°F19.4°C 79% 11.0 mph NNE17.7 kmh NNE 19.0 mph30.6 kmh 29.90 in1012.5 mb 0.00 in0.0 mm 0.00 in0.0 mm 0.07 in1.8 mm
02:10 AM 74.5°F23.6°C 66.0°F18.9°C 74% 12.5 mph NE20.1 kmh NE 23.0 mph37.0 kmh 29.90 in1012.5 mb 0.00 in0.0 mm 0.00 in0.0 mm 0.07 in1.8 mm
02:20 AM 74.7°F23.7°C 66.0°F18.9°C 74% 11.6 mph N18.7 kmh N 18.0 mph29.0 kmh 29.90 in1012.5 mb 0.00 in0.0 mm 0.00 in0.0 mm 0.07 in1.8 mm
02:30 AM 74.6°F23.7°C 66.0°F18.9°C 74% 10.2 mph N16.4 kmh N 18.0 mph29.0 kmh 29.90 in1012.5 mb 0.00 in0.0 mm 0.00 in0.0 mm 0.07 in1.8 mm
02:40 AM 75.0°F23.9°C 65.0°F18.3°C 72% 11.3 mph NE18.2 kmh NE 20.0 mph32.2 kmh 29.89 in1012.2 mb 0.00 in0.0 mm 0.00 in0.0 mm 0.07 in1.8 mm
02:50 AM 75.5°F24.2°C 65.0°F18.3°C 70% 11.5 mph N18.5 kmh N 21.0 mph33.8 kmh 29.89 in1012.2 mb 0.00 in0.0 mm 0.00 in0.0 mm 0.07 in1.8 mm
03:00 AM 75.8°F24.3°C 65.0°F18.3°C 69% 10.7 mph NNE17.2 kmh NNE 19.0 mph30.6 kmh 29.89 in1012.2 mb 0.00 in0.0 mm 0.00 in0.0 mm 0.07 in1.8 mm
03:10 AM 76.3°F24.6°C 65.0°F18.3°C 68% 12.5 mph NW20.1 kmh NW 21.0 mph33.8 kmh 29.89 in1012.2 mb 0.00 in0.0 mm 0.00 in0.0 mm 0.07 in1.8 mm
03:20 AM 76.2°F24.6°C 65.0°F18.3°C 69% 10.3 mph N16.6 kmh N 19.0 mph30.6 kmh 29.90 in1012.5 mb 0.00 in0.0 mm 0.00 in0.0 mm 0.07 in1.8 mm
03:30 AM 76.1°F24.5°C 65.0°F18.3°C 69% 9.9 mph N15.9 kmh N 17.0 mph27.4 kmh 29.89 in1012.2 mb 0.00 in0.0 mm 0.00 in0.0 mm 0.07 in1.8 mm
03:40 AM 76.3°F24.6°C 65.0°F18.3°C 68% 8.1 mph N13.0 kmh N 16.0 mph25.7 kmh 29.90 in1012.5 mb 0.00 in0.0 mm 0.00 in0.0 mm 0.07 in1.8 mm
03:50 AM 76.4°F24.7°C 65.0°F18.3°C 67% 5.2 mph NNE8.4 kmh NNE 11.0 mph17.7 kmh 29.91 in1012.9 mb 0.00 in0.0 mm 0.00 in0.0 mm 0.07 in1.8 mm
04:00 AM 76.4°F24.7°C 65.0°F18.3°C 68% 3.3 mph NNW5.3 kmh NNW 7.0 mph11.3 kmh 29.91 in1012.9 mb 0.00 in0.0 mm 0.00 in0.0 mm 0.07 in1.8 mm
04:10 AM 76.1°F24.5°C 65.0°F18.3°C 68% 1.2 mph N1.9 kmh N 5.0 mph8.0 kmh 29.91 in1012.9 mb 0.00 in0.0 mm 0.00 in0.0 mm 0.07 in1.8 mm
04:20 AM 76.2°F24.6°C 65.0°F18.3°C 69% 1.1 mph N1.8 kmh N 3.0 mph4.8 kmh 29.92 in1013.2 mb 0.00 in0.0 mm 0.00 in0.0 mm 0.07 in1.8 mm
04:30 AM 76.1°F24.5°C 65.0°F18.3°C 69% 1.2 mph NNE1.9 kmh NNE 4.0 mph6.4 kmh 29.92 in1013.2 mb 0.00 in0.0 mm 0.00 in0.0 mm 0.07 in1.8 mm
04:40 AM 75.8°F24.3°C 67.0°F19.4°C 74% 0.5 mph SE0.8 kmh SE 2.0 mph3.2 kmh 29.93 in1013.5 mb 0.00 in0.0 mm 0.00 in0.0 mm 0.07 in1.8 mm
04:50 AM 75.3°F24.1°C 67.0°F19.4°C 76% 0.2 mph SE0.3 kmh SE 1.0 mph1.6 kmh 29.93 in1013.5 mb 0.00 in0.0 mm 0.00 in0.0 mm 0.07 in1.8 mm
05:00 AM 75.1°F23.9°C 67.0°F19.4°C 76% 0.1 mph SE0.2 kmh SE 1.0 mph1.6 kmh 29.94 in1013.9 mb 0.00 in0.0 mm 0.00 in0.0 mm 0.07 in1.8 mm
05:10 AM 75.1°F23.9°C 67.0°F19.4°C 77% Calm Calm 1.0 mph1.6 kmh 29.95 in1014.2 mb 0.00 in0.0 mm 0.00 in0.0 mm 0.07 in1.8 mm
05:20 AM 74.9°F23.8°C 67.0°F19.4°C 77% Calm Calm 1.0 mph1.6 kmh 29.95 in1014.2 mb 0.00 in0.0 mm 0.00 in0.0 mm 0.07 in1.8 mm
05:30 AM 74.9°F23.8°C 67.0°F19.4°C 75% Calm Calm 1.0 mph1.6 kmh 29.95 in1014.2 mb 0.00 in0.0 mm 0.00 in0.0 mm 0.07 in1.8 mm
05:40 AM 75.2°F24.0°C 66.0°F18.9°C 73% 0.1 mph NE0.2 kmh NE 1.0 mph1.6 kmh 29.95 in1014.2 mb 0.00 in0.0 mm 0.00 in0.0 mm 0.07 in1.8 mm
05:50 AM 75.7°F24.3°C 66.0°F18.9°C 72% 0.2 mph N0.3 kmh N 2.0 mph3.2 kmh 29.96 in1014.6 mb 0.00 in0.0 mm 0.00 in0.0 mm 0.07 in1.8 mm
06:00 AM 75.8°F24.3°C 67.0°F19.4°C 73% 0.5 mph N0.8 kmh N 2.0 mph3.2 kmh 29.97 in1014.9 mb 0.00 in0.0 mm 0.00 in0.0 mm 0.07 in1.8 mm
06:10 AM 76.0°F24.4°C 67.0°F19.4°C 74% 0.9 mph NNE1.4 kmh NNE 4.0 mph6.4 kmh 29.97 in1014.9 mb 0.00 in0.0 mm 0.00 in0.0 mm 0.07 in1.8 mm
06:20 AM 76.1°F24.5°C 68.0°F20.0°C 75% 0.2 mph NNE0.3 kmh NNE 2.0 mph3.2 kmh 29.97 in1014.9 mb 0.00 in0.0 mm 0.00 in0.0 mm 0.07 in1.8 mm
06:30 AM 76.2°F24.6°C 67.0°F19.4°C 74% Calm Calm 1.0 mph1.6 kmh 29.98 in1015.2 mb 0.00 in0.0 mm 0.00 in0.0 mm 0.07 in1.8 mm
06:40 AM 76.4°F24.7°C 68.0°F20.0°C 74% Calm Calm 1.0 mph1.6 kmh 29.98 in1015.2 mb 0.00 in0.0 mm 0.00 in0.0 mm 0.07 in1.8 mm
06:50 AM 76.6°F24.8°C 67.0°F19.4°C 73% Calm Calm 1.0 mph1.6 kmh 29.98 in1015.2 mb 0.00 in0.0 mm 0.00 in0.0 mm 0.07 in1.8 mm
07:00 AM 77.0°F25.0°C 67.0°F19.4°C 72% 0.6 mph N1.0 kmh N 2.0 mph3.2 kmh 29.98 in1015.2 mb 0.00 in0.0 mm 0.00 in0.0 mm 0.07 in1.8 mm
07:10 AM 77.2°F25.1°C 67.0°F19.4°C 71% 0.2 mph N0.3 kmh N 2.0 mph3.2 kmh 29.99 in1015.6 mb 0.00 in0.0 mm 0.00 in0.0 mm 0.07 in1.8 mm
07:20 AM 77.5°F25.3°C 68.0°F20.0°C 72% Calm Calm 1.0 mph1.6 kmh 30.00 in1015.9 mb 0.00 in0.0 mm 0.00 in0.0 mm 0.07 in1.8 mm
07:30 AM 77.6°F25.3°C 68.0°F20.0°C 72% 0.2 mph N0.3 kmh N 1.0 mph1.6 kmh 30.00 in1015.9 mb 0.00 in0.0 mm 0.00 in0.0 mm 0.07 in1.8 mm
07:40 AM 78.0°F25.6°C 68.0°F20.0°C 71% Calm Calm 1.0 mph1.6 kmh 30.00 in1015.9 mb 0.00 in0.0 mm 0.00 in0.0 mm 0.07 in1.8 mm
07:50 AM 78.6°F25.9°C 68.0°F20.0°C 71% 0.7 mph SSW1.1 kmh SSW 2.0 mph3.2 kmh 30.00 in1015.9 mb 0.00 in0.0 mm 0.00 in0.0 mm 0.07 in1.8 mm
08:00 AM 79.2°F26.2°C 69.0°F20.6°C 71% 0.5 mph SE0.8 kmh SE 3.0 mph4.8 kmh 30.00 in1015.9 mb 0.00 in0.0 mm 0.00 in0.0 mm 0.07 in1.8 mm
08:10 AM 80.3°F26.8°C 70.0°F21.1°C 70% 0.1 mph SE0.2 kmh SE 1.0 mph1.6 kmh 30.00 in1015.9 mb 0.00 in0.0 mm 0.00 in0.0 mm 0.07 in1.8 mm
08:20 AM 80.6°F27.0°C 69.0°F20.6°C 68% 0.3 mph NNE0.5 kmh NNE 2.0 mph3.2 kmh 30.00 in1015.9 mb 0.00 in0.0 mm 0.00 in0.0 mm 0.07 in1.8 mm
08:30 AM 82.1°F27.8°C 69.0°F20.6°C 64% 1.2 mph NE1.9 kmh NE 4.0 mph6.4 kmh 30.00 in1015.9 mb 0.00 in0.0 mm 0.00 in0.0 mm 0.07 in1.8 mm
08:40 AM 83.9°F28.8°C 68.0°F20.0°C 60% 1.3 mph SSW2.1 kmh SSW 4.0 mph6.4 kmh 30.00 in1015.9 mb 0.00 in0.0 mm 0.00 in0.0 mm 0.07 in1.8 mm
08:50 AM 84.2°F29.0°C 67.0°F19.4°C 57% 1.2 mph SE1.9 kmh SE 4.0 mph6.4 kmh 30.00 in1015.9 mb 0.00 in0.0 mm 0.00 in0.0 mm 0.07 in1.8 mm
09:00 AM 83.3°F28.5°C 67.0°F19.4°C 59% 1.3 mph SSE2.1 kmh SSE 3.0 mph4.8 kmh 30.00 in1015.9 mb 0.00 in0.0 mm 0.00 in0.0 mm 0.07 in1.8 mm
09:10 AM 84.2°F29.0°C 68.0°F20.0°C 58% 1.2 mph ENE1.9 kmh ENE 4.0 mph6.4 kmh 30.00 in1015.9 mb 0.00 in0.0 mm 0.00 in0.0 mm 0.07 in1.8 mm
09:20 AM 85.0°F29.4°C 67.0°F19.4°C 55% 0.5 mph NE0.8 kmh NE 3.0 mph4.8 kmh 30.00 in1015.9 mb 0.00 in0.0 mm 0.00 in0.0 mm 0.07 in1.8 mm
09:30 AM 85.9°F29.9°C 68.0°F20.0°C 55% 1.6 mph NE2.6 kmh NE 6.0 mph9.7 kmh 30.01 in1016.3 mb 0.00 in0.0 mm 0.00 in0.0 mm 0.07 in1.8 mm
09:40 AM 86.1°F30.1°C 67.0°F19.4°C 54% 1.8 mph NE2.9 kmh NE 6.0 mph9.7 kmh 30.01 in1016.3 mb 0.00 in0.0 mm 0.00 in0.0 mm 0.07 in1.8 mm
09:50 AM 85.2°F29.6°C 68.0°F20.0°C 57% 1.6 mph SE2.6 kmh SE 6.0 mph9.7 kmh 30.01 in1016.3 mb 0.00 in0.0 mm 0.00 in0.0 mm 0.07 in1.8 mm
10:00 AM 84.4°F29.1°C 68.0°F20.0°C 58% 0.8 mph NNE1.3 kmh NNE 3.0 mph4.8 kmh 30.01 in1016.3 mb 0.00 in0.0 mm 0.00 in0.0 mm 0.07 in1.8 mm
10:10 AM 84.7°F29.3°C 67.0°F19.4°C 56% 1.7 mph SE2.7 kmh SE 4.0 mph6.4 kmh 30.01 in1016.3 mb 0.00 in0.0 mm 0.00 in0.0 mm 0.07 in1.8 mm
10:20 AM 84.2°F29.0°C 67.0°F19.4°C 57% 1.3 mph SW2.1 kmh SW 4.0 mph6.4 kmh 30.01 in1016.3 mb 0.00 in0.0 mm 0.00 in0.0 mm 0.07 in1.8 mm
10:30 AM 85.0°F29.4°C 69.0°F20.6°C 58% 1.4 mph ESE2.3 kmh ESE 5.0 mph8.0 kmh 30.01 in1016.3 mb 0.00 in0.0 mm 0.00 in0.0 mm 0.07 in1.8 mm
10:40 AM 85.0°F29.4°C 68.0°F20.0°C 57% 1.8 mph SE2.9 kmh SE 5.0 mph8.0 kmh 30.01 in1016.3 mb 0.00 in0.0 mm 0.00 in0.0 mm 0.07 in1.8 mm
10:50 AM 85.1°F29.5°C 68.0°F20.0°C 57% 1.4 mph SE2.3 kmh SE 7.0 mph11.3 kmh 30.01 in1016.3 mb 0.00 in0.0 mm 0.00 in0.0 mm 0.07 in1.8 mm
11:00 AM 84.7°F29.3°C 68.0°F20.0°C 58% 1.1 mph SSE1.8 kmh SSE 4.0 mph6.4 kmh 30.01 in1016.3 mb 0.00 in0.0 mm 0.00 in0.0 mm 0.07 in1.8 mm
11:10 AM 84.7°F29.3°C 68.0°F20.0°C 57% 1.5 mph SE2.4 kmh SE 6.0 mph9.7 kmh 30.00 in1015.9 mb 0.00 in0.0 mm 0.00 in0.0 mm 0.07 in1.8 mm
11:20 AM 85.3°F29.6°C 67.0°F19.4°C 55% 1.8 mph SSE2.9 kmh SSE 6.0 mph9.7 kmh 30.00 in1015.9 mb 0.00 in0.0 mm 0.00 in0.0 mm 0.07 in1.8 mm
11:30 AM 85.3°F29.6°C 67.0°F19.4°C 54% 2.3 mph SSE3.7 kmh SSE 6.0 mph9.7 kmh 30.00 in1015.9 mb 0.00 in0.0 mm 0.00 in0.0 mm 0.07 in1.8 mm
11:40 AM 85.2°F29.6°C 67.0°F19.4°C 54% 1.9 mph SE3.1 kmh SE 6.0 mph9.7 kmh 30.00 in1015.9 mb 0.00 in0.0 mm 0.00 in0.0 mm 0.07 in1.8 mm
11:50 AM 85.8°F29.9°C 67.0°F19.4°C 54% 1.1 mph ESE1.8 kmh ESE 5.0 mph8.0 kmh 29.99 in1015.6 mb 0.00 in0.0 mm 0.00 in0.0 mm 0.07 in1.8 mm
12:00 PM 86.6°F30.3°C 68.0°F20.0°C 54% 0.9 mph NNE1.4 kmh NNE 3.0 mph4.8 kmh 29.99 in1015.6 mb 0.00 in0.0 mm 0.00 in0.0 mm 0.07 in1.8 mm
12:10 PM 88.5°F31.4°C 68.0°F20.0°C 50% 1.1 mph SE1.8 kmh SE 5.0 mph8.0 kmh 29.99 in1015.6 mb 0.00 in0.0 mm 0.00 in0.0 mm 0.07 in1.8 mm
12:20 PM 90.2°F32.3°C 67.0°F19.4°C 46% 1.9 mph SE3.1 kmh SE 7.0 mph11.3 kmh 29.98 in1015.2 mb 0.00 in0.0 mm 0.00 in0.0 mm 0.07 in1.8 mm
12:30 PM 90.5°F32.5°C 67.0°F19.4°C 46% 2.7 mph SE4.3 kmh SE 7.0 mph11.3 kmh 29.97 in1014.9 mb 0.00 in0.0 mm 0.00 in0.0 mm 0.07 in1.8 mm
12:40 PM 91.6°F33.1°C 67.0°F19.4°C 45% 2.2 mph WSW3.5 kmh WSW 6.0 mph9.7 kmh 29.97 in1014.9 mb 0.00 in0.0 mm 0.00 in0.0 mm 0.07 in1.8 mm
12:50 PM 90.4°F32.4°C 66.0°F18.9°C 45% 3.7 mph WSW6.0 kmh WSW 10.0 mph16.1 kmh 29.97 in1014.9 mb 0.00 in0.0 mm 0.00 in0.0 mm 0.07 in1.8 mm
01:00 PM 91.3°F32.9°C 67.0°F19.4°C 45% 2.2 mph SW3.5 kmh SW 8.0 mph12.9 kmh 29.97 in1014.9 mb 0.00 in0.0 mm 0.00 in0.0 mm 0.07 in1.8 mm
01:10 PM 91.3°F32.9°C 66.0°F18.9°C 43% 2.4 mph SW3.9 kmh SW 8.0 mph12.9 kmh 29.96 in1014.6 mb 0.00 in0.0 mm 0.00 in0.0 mm 0.07 in1.8 mm
01:20 PM 91.4°F33.0°C 67.0°F19.4°C 44% 2.1 mph SE3.4 kmh SE 6.0 mph9.7 kmh 29.96 in1014.6 mb 0.00 in0.0 mm 0.00 in0.0 mm 0.07 in1.8 mm
01:30 PM 90.5°F32.5°C 66.0°F18.9°C 45% 1.3 mph SE2.1 kmh SE 5.0 mph8.0 kmh 29.95 in1014.2 mb 0.00 in0.0 mm 0.00 in0.0 mm 0.07 in1.8 mm
01:40 PM 91.7°F33.2°C 67.0°F19.4°C 44% 2.3 mph SW3.7 kmh SW 6.0 mph9.7 kmh 29.95 in1014.2 mb 0.00 in0.0 mm 0.00 in0.0 mm 0.07 in1.8 mm
01:50 PM 91.6°F33.1°C 66.0°F18.9°C 43% 2.7 mph SW4.3 kmh SW 9.0 mph14.5 kmh 29.94 in1013.9 mb 0.00 in0.0 mm 0.00 in0.0 mm 0.07 in1.8 mm
02:00 PM 92.1°F33.4°C 67.0°F19.4°C 43% 1.6 mph SSE2.6 kmh SSE 5.0 mph8.0 kmh 29.93 in1013.5 mb 0.00 in0.0 mm 0.00 in0.0 mm 0.07 in1.8 mm
02:10 PM 91.2°F32.9°C 66.0°F18.9°C 44% 2.1 mph S3.4 kmh S 8.0 mph12.9 kmh 29.93 in1013.5 mb 0.00 in0.0 mm 0.00 in0.0 mm 0.07 in1.8 mm
02:20 PM 91.4°F33.0°C 66.0°F18.9°C 43% 3.0 mph NE4.8 kmh NE 7.0 mph11.3 kmh 29.93 in1013.5 mb 0.00 in0.0 mm 0.00 in0.0 mm 0.07 in1.8 mm
02:30 PM 92.8°F33.8°C 67.0°F19.4°C 43% 2.7 mph SSE4.3 kmh SSE 8.0 mph12.9 kmh 29.92 in1013.2 mb 0.00 in0.0 mm 0.00 in0.0 mm 0.07 in1.8 mm
02:40 PM 93.0°F33.9°C 66.0°F18.9°C 41% 2.1 mph SW3.4 kmh SW 6.0 mph9.7 kmh 29.92 in1013.2 mb 0.00 in0.0 mm 0.00 in0.0 mm 0.07 in1.8 mm
02:50 PM 93.5°F34.2°C 66.0°F18.9°C 40% 3.1 mph SSE5.0 kmh SSE 7.0 mph11.3 kmh 29.92 in1013.2 mb 0.00 in0.0 mm 0.00 in0.0 mm 0.07 in1.8 mm
03:00 PM 93.9°F34.4°C 66.0°F18.9°C 40% 2.7 mph SW4.3 kmh SW 8.0 mph12.9 kmh 29.92 in1013.2 mb 0.00 in0.0 mm 0.00 in0.0 mm 0.07 in1.8 mm
03:10 PM 92.8°F33.8°C 66.0°F18.9°C 41% 2.8 mph SW4.5 kmh SW 9.0 mph14.5 kmh 29.91 in1012.9 mb 0.00 in0.0 mm 0.00 in0.0 mm 0.07 in1.8 mm
03:20 PM 94.1°F34.5°C 66.0°F18.9°C 39% 2.2 mph SW3.5 kmh SW 9.0 mph14.5 kmh 29.91 in1012.9 mb 0.00 in0.0 mm 0.00 in0.0 mm 0.07 in1.8 mm
03:30 PM 93.2°F34.0°C 65.0°F18.3°C 39% 3.1 mph SSW5.0 kmh SSW 9.0 mph14.5 kmh 29.91 in1012.9 mb 0.00 in0.0 mm 0.00 in0.0 mm 0.07 in1.8 mm
03:40 PM 94.3°F34.6°C 66.0°F18.9°C 39% 1.9 mph SSE3.1 kmh SSE 7.0 mph11.3 kmh 29.91 in1012.9 mb 0.00 in0.0 mm 0.00 in0.0 mm 0.07 in1.8 mm
03:50 PM 94.4°F34.7°C 66.0°F18.9°C 39% 2.5 mph S4.0 kmh S 6.0 mph9.7 kmh 29.91 in1012.9 mb 0.00 in0.0 mm 0.00 in0.0 mm 0.07 in1.8 mm
04:00 PM 93.9°F34.4°C 65.0°F18.3°C 39% 2.4 mph SW3.9 kmh SW 8.0 mph12.9 kmh 29.91 in1012.9 mb 0.00 in0.0 mm 0.00 in0.0 mm 0.07 in1.8 mm
04:10 PM 93.6°F34.2°C 65.0°F18.3°C 39% 3.3 mph S5.3 kmh S 7.0 mph11.3 kmh 29.91 in1012.9 mb 0.00 in0.0 mm 0.00 in0.0 mm 0.07 in1.8 mm
04:20 PM 93.8°F34.3°C 65.0°F18.3°C 39% 1.2 mph SW1.9 kmh SW 3.0 mph4.8 kmh 29.91 in1012.9 mb 0.00 in0.0 mm 0.00 in0.0 mm 0.07 in1.8 mm
04:30 PM 92.9°F33.8°C 65.0°F18.3°C 40% 2.2 mph S3.5 kmh S 6.0 mph9.7 kmh 29.92 in1013.2 mb 0.00 in0.0 mm 0.00 in0.0 mm 0.07 in1.8 mm
04:40 PM 92.6°F33.7°C 66.0°F18.9°C 41% 1.8 mph SE2.9 kmh SE 6.0 mph9.7 kmh 29.92 in1013.2 mb 0.00 in0.0 mm 0.00 in0.0 mm 0.07 in1.8 mm
04:50 PM 91.9°F33.3°C 65.0°F18.3°C 41% 2.5 mph S4.0 kmh S 6.0 mph9.7 kmh 29.91 in1012.9 mb 0.00 in0.0 mm 0.00 in0.0 mm 0.07 in1.8 mm
05:00 PM 91.7°F33.2°C 65.0°F18.3°C 42% 1.8 mph SW2.9 kmh SW 5.0 mph8.0 kmh 29.91 in1012.9 mb 0.00 in0.0 mm 0.00 in0.0 mm 0.07 in1.8 mm
05:10 PM 91.7°F33.2°C 65.0°F18.3°C 42% 0.8 mph SW1.3 kmh SW 3.0 mph4.8 kmh 29.91 in1012.9 mb 0.00 in0.0 mm 0.00 in0.0 mm 0.07 in1.8 mm
05:20 PM 91.6°F33.1°C 65.0°F18.3°C 42% 0.2 mph NW0.3 kmh NW 4.0 mph6.4 kmh 29.91 in1012.9 mb 0.00 in0.0 mm 0.00 in0.0 mm 0.07 in1.8 mm
05:30 PM 90.8°F32.7°C 65.0°F18.3°C 43% 0.6 mph NNW1.0 kmh NNW 3.0 mph4.8 kmh 29.90 in1012.5 mb 0.00 in0.0 mm 0.00 in0.0 mm 0.07 in1.8 mm
05:40 PM 90.6°F32.6°C 66.0°F18.9°C 44% 1.2 mph NNW1.9 kmh NNW 5.0 mph8.0 kmh 29.90 in1012.5 mb 0.00 in0.0 mm 0.00 in0.0 mm 0.07 in1.8 mm
05:50 PM 90.7°F32.6°C 65.0°F18.3°C 43% 0.9 mph SW1.4 kmh SW 4.0 mph6.4 kmh 29.91 in1012.9 mb 0.00 in0.0 mm 0.00 in0.0 mm 0.07 in1.8 mm
06:00 PM 90.5°F32.5°C 64.0°F17.8°C 42% 0.2 mph NNE0.3 kmh NNE 4.0 mph6.4 kmh 29.91 in1012.9 mb 0.00 in0.0 mm 0.00 in0.0 mm 0.07 in1.8 mm
06:10 PM 90.1°F32.3°C 61.0°F16.1°C 38% 4.6 mph N7.4 kmh N 9.0 mph14.5 kmh 29.91 in1012.9 mb 0.00 in0.0 mm 0.00 in0.0 mm 0.07 in1.8 mm
06:20 PM 89.7°F32.1°C 61.0°F16.1°C 38% 4.9 mph N7.9 kmh N 10.0 mph16.1 kmh 29.91 in1012.9 mb 0.00 in0.0 mm 0.00 in0.0 mm 0.07 in1.8 mm
06:30 PM 89.7°F32.1°C 61.0°F16.1°C 38% 3.6 mph NE5.8 kmh NE 9.0 mph14.5 kmh 29.91 in1012.9 mb 0.00 in0.0 mm 0.00 in0.0 mm 0.07 in1.8 mm
06:40 PM 89.6°F32.0°C 61.0°F16.1°C 38% 3.0 mph NNE4.8 kmh NNE 7.0 mph11.3 kmh 29.91 in1012.9 mb 0.00 in0.0 mm 0.00 in0.0 mm 0.07 in1.8 mm
06:50 PM 89.5°F31.9°C 61.0°F16.1°C 39% 3.0 mph N4.8 kmh N 7.0 mph11.3 kmh 29.91 in1012.9 mb 0.00 in0.0 mm 0.00 in0.0 mm 0.07 in1.8 mm
07:00 PM 89.3°F31.8°C 63.0°F17.2°C 41% 2.0 mph NE3.2 kmh NE 4.0 mph6.4 kmh 29.91 in1012.9 mb 0.00 in0.0 mm 0.00 in0.0 mm 0.07 in1.8 mm
07:10 PM 89.2°F31.8°C 62.0°F16.7°C 40% 2.0 mph NE3.2 kmh NE 5.0 mph8.0 kmh 29.91 in1012.9 mb 0.00 in0.0 mm 0.00 in0.0 mm 0.07 in1.8 mm
07:20 PM 89.2°F31.8°C 62.0°F16.7°C 40% 2.8 mph NE4.5 kmh NE 5.0 mph8.0 kmh 29.91 in1012.9 mb 0.00 in0.0 mm 0.00 in0.0 mm 0.07 in1.8 mm
07:30 PM 89.0°F31.7°C 61.0°F16.1°C 39% 1.9 mph N3.1 kmh N 4.0 mph6.4 kmh 29.91 in1012.9 mb 0.00 in0.0 mm 0.00 in0.0 mm 0.07 in1.8 mm
07:40 PM 89.0°F31.7°C 62.0°F16.7°C 40% 2.2 mph N3.5 kmh N 4.0 mph6.4 kmh 29.91 in1012.9 mb 0.00 in0.0 mm 0.00 in0.0 mm 0.07 in1.8 mm
07:50 PM 88.8°F31.6°C 62.0°F16.7°C 40% 1.0 mph NNE1.6 kmh NNE 3.0 mph4.8 kmh 29.92 in1013.2 mb 0.00 in0.0 mm 0.00 in0.0 mm 0.07 in1.8 mm
08:00 PM 88.5°F31.4°C 62.0°F16.7°C 41% 0.4 mph NNE0.6 kmh NNE 2.0 mph3.2 kmh 29.92 in1013.2 mb 0.00 in0.0 mm 0.00 in0.0 mm 0.07 in1.8 mm
08:10 PM 88.1°F31.2°C 62.0°F16.7°C 42% Calm Calm 1.0 mph1.6 kmh 29.92 in1013.2 mb 0.00 in0.0 mm 0.00 in0.0 mm 0.07 in1.8 mm
08:20 PM 87.8°F31.0°C 63.0°F17.2°C 43% 1.7 mph NNE2.7 kmh NNE 5.0 mph8.0 kmh 29.93 in1013.5 mb 0.00 in0.0 mm 0.00 in0.0 mm 0.07 in1.8 mm
08:30 PM 87.4°F30.8°C 62.0°F16.7°C 43% 1.9 mph N3.1 kmh N 4.0 mph6.4 kmh 29.93 in1013.5 mb 0.00 in0.0 mm 0.00 in0.0 mm 0.07 in1.8 mm
08:40 PM 86.9°F30.5°C 64.0°F17.8°C 47% 2.5 mph NNE4.0 kmh NNE 5.0 mph8.0 kmh 29.93 in1013.5 mb 0.00 in0.0 mm 0.00 in0.0 mm 0.07 in1.8 mm
08:50 PM 86.5°F30.3°C 65.0°F18.3°C 48% 2.6 mph NE4.2 kmh NE 6.0 mph9.7 kmh 29.93 in1013.5 mb 0.00 in0.0 mm 0.00 in0.0 mm 0.07 in1.8 mm
09:00 PM 86.4°F30.2°C 65.0°F18.3°C 49% 2.5 mph NNE4.0 kmh NNE 5.0 mph8.0 kmh 29.93 in1013.5 mb 0.00 in0.0 mm 0.00 in0.0 mm 0.07 in1.8 mm
09:10 PM 86.4°F30.2°C 65.0°F18.3°C 49% 2.6 mph NE4.2 kmh NE 5.0 mph8.0 kmh 29.93 in1013.5 mb 0.00 in0.0 mm 0.00 in0.0 mm 0.07 in1.8 mm
09:20 PM 86.4°F30.2°C 66.0°F18.9°C 50% 2.9 mph NNE4.7 kmh NNE 5.0 mph8.0 kmh 29.94 in1013.9 mb 0.00 in0.0 mm 0.00 in0.0 mm 0.07 in1.8 mm
09:30 PM 86.2°F30.1°C 65.0°F18.3°C 50% 2.9 mph NNE4.7 kmh NNE 5.0 mph8.0 kmh 29.94 in1013.9 mb 0.00 in0.0 mm 0.00 in0.0 mm 0.07 in1.8 mm
09:40 PM 85.8°F29.9°C 66.0°F18.9°C 51% 2.9 mph N4.7 kmh N 6.0 mph9.7 kmh 29.93 in1013.5 mb 0.00 in0.0 mm 0.00 in0.0 mm 0.07 in1.8 mm
09:50 PM 85.5°F29.7°C 66.0°F18.9°C 52% 2.1 mph NNE3.4 kmh NNE 6.0 mph9.7 kmh 29.93 in1013.5 mb 0.00 in0.0 mm 0.00 in0.0 mm 0.07 in1.8 mm
10:00 PM 85.4°F29.7°C 66.0°F18.9°C 53% 1.9 mph N3.1 kmh N 5.0 mph8.0 kmh 29.94 in1013.9 mb 0.00 in0.0 mm 0.00 in0.0 mm 0.07 in1.8 mm
10:10 PM 85.3°F29.6°C 66.0°F18.9°C 53% 2.4 mph NE3.9 kmh NE 5.0 mph8.0 kmh 29.94 in1013.9 mb 0.00 in0.0 mm 0.00 in0.0 mm 0.07 in1.8 mm
10:20 PM 85.3°F29.6°C 66.0°F18.9°C 53% 2.7 mph N4.3 kmh N 5.0 mph8.0 kmh 29.94 in1013.9 mb 0.00 in0.0 mm 0.00 in0.0 mm 0.07 in1.8 mm
10:30 PM 85.2°F29.6°C 66.0°F18.9°C 52% 2.7 mph N4.3 kmh N 5.0 mph8.0 kmh 29.94 in1013.9 mb 0.00 in0.0 mm 0.00 in0.0 mm 0.07 in1.8 mm
10:40 PM 85.2°F29.6°C 66.0°F18.9°C 52% 3.1 mph N5.0 kmh N 6.0 mph9.7 kmh 29.94 in1013.9 mb 0.00 in0.0 mm 0.00 in0.0 mm 0.07 in1.8 mm
10:50 PM 85.1°F29.5°C 66.0°F18.9°C 53% 2.1 mph NNE3.4 kmh NNE 4.0 mph6.4 kmh 29.94 in1013.9 mb 0.00 in0.0 mm 0.00 in0.0 mm 0.07 in1.8 mm
11:00 PM 84.9°F29.4°C 66.0°F18.9°C 53% 2.3 mph NNE3.7 kmh NNE 4.0 mph6.4 kmh 29.94 in1013.9 mb 0.00 in0.0 mm 0.00 in0.0 mm 0.07 in1.8 mm
11:10 PM 84.7°F29.3°C 66.0°F18.9°C 54% 2.4 mph NE3.9 kmh NE 4.0 mph6.4 kmh 29.94 in1013.9 mb 0.00 in0.0 mm 0.00 in0.0 mm 0.07 in1.8 mm
11:20 PM 84.6°F29.2°C 66.0°F18.9°C 54% 3.1 mph N5.0 kmh N 6.0 mph9.7 kmh 29.94 in1013.9 mb 0.00 in0.0 mm 0.00 in0.0 mm 0.07 in1.8 mm
11:30 PM 84.4°F29.1°C 66.0°F18.9°C 55% 3.2 mph N5.1 kmh N 7.0 mph11.3 kmh 29.94 in1013.9 mb 0.00 in0.0 mm 0.00 in0.0 mm 0.07 in1.8 mm
11:40 PM 84.3°F29.1°C 66.0°F18.9°C 55% 2.5 mph N4.0 kmh N 5.0 mph8.0 kmh 29.94 in1013.9 mb 0.00 in0.0 mm 0.00 in0.0 mm 0.07 in1.8 mm
11:50 PM 84.1°F28.9°C 67.0°F19.4°C 56% 1.4 mph N2.3 kmh N 4.0 mph6.4 kmh 29.94 in1013.9 mb 0.00 in0.0 mm 0.00 in0.0 mm 0.07 in1.8 mm